Rixie, Nevada
Current Conditions -  °F | °C
As of 12:56 AM on Wednesday 22 Oct 2014 (Local Time) from KWMC Reporting Station
Clear Clear  
Wind Chill: 29°   Ceiling: Unl
Heat Index: 34°   Visibility: 10mi
Dew Point: 22°   Wind: 6mph
Humidity: 61%   Direction: 100°E
Pressure: 30.11"   Gusts: NA
Location:  40.6619°N, 116.867°W
Report Text: KWMC 220756Z AUTO 10005KT 10SM CLR 01/M06 A3011 RMK AO2 SLP192 T00111056 401391017
Loading
Personal Weather Stations






























Interactive Weather Map
Tropical Storm Tracking
New forecast layout! Learn more

10-Day Weather Forecast

Advertisements
Track Severe Weather on mobile